createdAt,value
2017-10-11T00:00:45.275Z,6.50
2017-10-11T00:03:19.719Z,8.95
2017-10-11T00:05:54.133Z,7.03
2017-10-11T00:08:29.544Z,8.35
2017-10-11T00:11:03.860Z,7.82
2017-10-11T00:13:38.220Z,8.15
2017-10-11T00:16:12.517Z,7.07
2017-10-11T00:18:47.668Z,7.45
2017-10-11T00:21:21.983Z,7.93
2017-10-11T00:23:56.411Z,6.40
2017-10-11T00:26:31.610Z,7.30
2017-10-11T00:29:06.056Z,6.85
2017-10-11T00:31:40.488Z,7.37
2017-10-11T00:34:14.952Z,6.65
2017-10-11T00:36:49.418Z,5.93
2017-10-11T00:39:23.810Z,3.92
2017-10-11T00:41:58.296Z,4.97
2017-10-11T00:44:32.660Z,4.28
2017-10-11T00:47:07.072Z,4.47
2017-10-11T00:49:42.231Z,3.95
2017-10-11T00:52:16.719Z,4.03
2017-10-11T00:54:51.910Z,5.40
2017-10-11T00:57:26.283Z,5.05
2017-10-11T01:00:00.819Z,3.45
2017-10-11T01:02:36.133Z,4.00
2017-10-11T01:05:10.587Z,3.70
2017-10-11T01:07:45.003Z,4.37
2017-10-11T01:10:19.416Z,4.47
2017-10-11T01:12:53.800Z,4.97
2017-10-11T01:15:29.001Z,4.15
2017-10-11T01:18:03.308Z,3.65
2017-10-11T01:20:38.280Z,3.50
2017-10-11T01:23:12.623Z,2.35
2017-10-11T01:25:47.821Z,4.45
2017-10-11T01:28:22.319Z,5.10
2017-10-11T01:30:56.759Z,4.93
2017-10-11T01:33:31.228Z,6.75
2017-10-11T01:36:05.554Z,6.30
2017-10-11T01:38:40.024Z,8.23
2017-10-11T01:41:14.491Z,8.10
2017-10-11T01:43:48.832Z,9.07
2017-10-11T01:46:23.180Z,10.20
2017-10-11T01:48:57.670Z,10.55
2017-10-11T01:51:33.087Z,10.18
2017-10-11T01:54:07.499Z,7.80
2017-10-11T01:56:41.960Z,5.55
2017-10-11T01:59:16.348Z,6.75
2017-10-11T02:01:50.690Z,9.77
2017-10-11T02:04:25.119Z,8.32
2017-10-11T02:06:59.603Z,7.62
2017-10-11T02:09:34.832Z,9.10
2017-10-11T02:12:10.091Z,7.47
2017-10-11T02:14:44.467Z,10.70
2017-10-11T02:17:18.831Z,7.10
2017-10-11T02:19:53.293Z,9.85
2017-10-11T02:22:28.579Z,11.75
2017-10-11T02:25:03.004Z,9.32
2017-10-11T02:27:38.303Z,11.32
2017-10-11T02:30:12.653Z,10.55
2017-10-11T02:32:47.192Z,11.65
2017-10-11T02:35:21.635Z,11.18
2017-10-11T02:37:55.961Z,13.32
2017-10-11T02:40:30.304Z,12.95
2017-10-11T02:43:05.500Z,14.20
2017-10-11T02:45:40.592Z,14.40
2017-10-11T02:48:15.865Z,16.60
2017-10-11T02:50:50.183Z,16.10
2017-10-11T02:53:24.579Z,14.85
2017-10-11T02:55:59.085Z,13.30
2017-10-11T02:58:33.603Z,14.25
2017-10-11T03:01:08.912Z,13.93
2017-10-11T03:03:43.304Z,14.77
2017-10-11T03:06:17.844Z,16.25
2017-10-11T03:08:52.391Z,16.77
2017-10-11T03:11:26.893Z,16.50
2017-10-11T03:14:01.296Z,18.75
2017-10-11T03:16:36.513Z,17.42
2017-10-11T03:19:11.022Z,19.52
2017-10-11T03:21:45.431Z,18.17
2017-10-11T03:24:20.708Z,17.45
2017-10-11T03:26:55.066Z,19.15
2017-10-11T03:29:29.568Z,19.15
2017-10-11T03:32:04.034Z,21.05
2017-10-11T03:34:38.500Z,17.12
2017-10-11T03:37:13.666Z,22.00
2017-10-11T03:39:49.048Z,17.30
2017-10-11T03:42:23.579Z,20.62
2017-10-11T03:44:57.967Z,19.30
2017-10-11T03:47:32.516Z,22.17
2017-10-11T03:50:07.680Z,20.00
2017-10-11T03:52:42.145Z,22.33
2017-10-11T03:55:16.481Z,18.20
2017-10-11T03:57:50.884Z,20.42
2017-10-11T04:00:25.332Z,18.52
2017-10-11T04:02:59.746Z,18.80
2017-10-11T04:05:34.220Z,20.92
2017-10-11T04:08:08.688Z,18.52
2017-10-11T04:10:43.048Z,20.00
2017-10-11T04:13:17.481Z,18.48
2017-10-11T04:15:51.998Z,20.27
2017-10-11T04:18:26.468Z,20.83
2017-10-11T04:21:01.732Z,22.13
2017-10-11T04:23:36.953Z,21.20
2017-10-11T04:26:11.598Z,15.45
2017-10-11T04:28:46.866Z,21.50
2017-10-11T04:31:21.713Z,19.35
2017-10-11T04:33:57.363Z,22.58
2017-10-11T04:36:31.719Z,23.80
2017-10-11T04:39:07.048Z,19.10
2017-10-11T04:41:42.165Z,21.25
2017-10-11T04:44:17.708Z,22.40
2017-10-11T04:46:52.387Z,18.45
2017-10-11T04:49:27.708Z,22.17
2017-10-11T04:52:02.232Z,22.42
2017-10-11T04:54:36.782Z,22.73
2017-10-11T04:57:12.008Z,20.05
2017-10-11T04:59:46.483Z,19.15
2017-10-11T05:02:21.140Z,18.33
2017-10-11T05:04:55.540Z,17.37
2017-10-11T05:07:31.440Z,21.45
2017-10-11T05:10:05.927Z,16.75
2017-10-11T05:12:41.159Z,18.98
2017-10-11T05:15:15.465Z,22.33
2017-10-11T05:17:50.619Z,18.30
2017-10-11T05:20:25.127Z,15.05
2017-10-11T05:22:59.640Z,16.92
2017-10-11T05:25:34.895Z,13.93
2017-10-11T05:28:09.224Z,9.98
2017-10-11T05:30:44.591Z,11.88
2017-10-11T05:33:19.084Z,13.10
2017-10-11T05:35:53.571Z,12.02
2017-10-11T05:38:28.061Z,11.50
2017-10-11T05:41:02.539Z,10.40
2017-10-11T05:43:36.851Z,12.25
2017-10-11T05:46:11.288Z,11.02
2017-10-11T05:48:45.726Z,10.85
2017-10-11T05:51:20.196Z,11.27
2017-10-11T05:53:54.746Z,12.15
2017-10-11T05:56:29.227Z,12.35
2017-10-11T05:59:03.675Z,12.23
2017-10-11T06:01:38.159Z,10.60
2017-10-11T06:04:12.705Z,12.73
2017-10-11T06:06:47.119Z,14.55
2017-10-11T06:09:21.547Z,12.27
2017-10-11T06:11:55.984Z,13.05
2017-10-11T06:14:30.320Z,15.07
2017-10-11T06:17:04.804Z,14.38
2017-10-11T06:19:39.279Z,14.13
2017-10-11T06:22:13.738Z,13.30
2017-10-11T06:24:48.307Z,13.62
2017-10-11T06:27:22.599Z,16.75
2017-10-11T06:29:56.947Z,14.23
2017-10-11T06:32:31.392Z,15.93
2017-10-11T06:35:05.766Z,16.15
2017-10-11T06:37:41.197Z,14.32
2017-10-11T06:40:15.512Z,15.52
2017-10-11T06:42:49.885Z,12.32
2017-10-11T06:45:24.224Z,15.57
2017-10-11T06:47:58.559Z,11.15
2017-10-11T06:50:33.790Z,14.50
2017-10-11T06:53:08.256Z,13.80
2017-10-11T06:55:42.729Z,12.35
2017-10-11T06:58:17.264Z,11.63
2017-10-11T07:00:51.536Z,11.93
2017-10-11T07:03:25.903Z,10.65
2017-10-11T07:06:00.354Z,11.88
2017-10-11T07:08:34.783Z,11.23
2017-10-11T07:11:10.939Z,7.35
2017-10-11T07:13:45.300Z,9.32
2017-10-11T07:16:19.770Z,8.65
2017-10-11T07:18:54.269Z,8.93
2017-10-11T07:21:28.688Z,8.88
2017-10-11T07:24:03.103Z,7.45
2017-10-11T07:26:37.417Z,7.03
2017-10-11T07:29:11.760Z,3.10
2017-10-11T07:31:46.053Z,5.90
2017-10-11T07:34:20.385Z,5.55
2017-10-11T07:36:54.897Z,4.25
2017-10-11T07:39:29.412Z,3.85
2017-10-11T07:42:03.757Z,4.93
2017-10-11T07:44:38.215Z,3.45
2017-10-11T07:47:12.629Z,4.32
2017-10-11T07:49:47.208Z,5.00
2017-10-11T07:52:21.568Z,5.57
2017-10-11T07:54:55.922Z,4.85
2017-10-11T07:57:30.491Z,4.20
2017-10-11T08:00:05.024Z,5.60
2017-10-11T08:02:39.537Z,5.80
2017-10-11T08:05:14.726Z,3.10
2017-10-11T08:07:48.999Z,6.62
2017-10-11T08:10:23.419Z,6.03
2017-10-11T08:12:57.894Z,5.22
2017-10-11T08:15:33.153Z,6.20
2017-10-11T08:18:07.493Z,6.82
2017-10-11T08:20:41.979Z,5.35
2017-10-11T08:23:16.440Z,6.03
2017-10-11T08:25:50.823Z,6.20
2017-10-11T08:28:25.122Z,7.50
2017-10-11T08:30:59.455Z,7.00
2017-10-11T08:33:33.915Z,8.15
2017-10-11T08:36:09.216Z,6.45
2017-10-11T08:38:43.690Z,6.50
2017-10-11T08:41:18.940Z,7.07
2017-10-11T08:43:53.251Z,6.82
2017-10-11T08:46:27.557Z,6.20
2017-10-11T08:49:02.083Z,6.80
2017-10-11T08:51:36.524Z,6.95
2017-10-11T08:54:10.884Z,6.30
2017-10-11T08:56:45.457Z,4.60
2017-10-11T08:59:19.761Z,5.20
2017-10-11T09:01:54.384Z,5.25
2017-10-11T09:04:29.932Z,7.30
2017-10-11T09:07:04.381Z,4.95
2017-10-11T09:09:38.931Z,3.53
2017-10-11T09:12:13.219Z,4.07
2017-10-11T09:14:47.766Z,5.93
2017-10-11T09:17:22.242Z,5.65
2017-10-11T09:19:56.753Z,4.15
2017-10-11T09:22:31.277Z,6.03
2017-10-11T09:25:06.672Z,5.82
2017-10-11T09:27:40.976Z,5.65
2017-10-11T09:30:15.331Z,4.70
2017-10-11T09:32:49.664Z,5.62
2017-10-11T09:35:24.902Z,5.05
2017-10-11T09:37:59.455Z,4.62
2017-10-11T09:40:33.969Z,4.75
2017-10-11T09:43:08.371Z,5.18
2017-10-11T09:45:42.802Z,5.30
2017-10-11T09:48:17.361Z,3.40
2017-10-11T09:50:51.897Z,4.30
2017-10-11T09:53:26.213Z,4.47
2017-10-11T09:56:01.402Z,3.62
2017-10-11T09:58:35.916Z,3.03
2017-10-11T10:01:10.367Z,4.28
2017-10-11T10:03:44.852Z,4.18
2017-10-11T10:06:19.302Z,2.05
2017-10-11T10:08:53.799Z,2.45
2017-10-11T10:11:28.389Z,3.60
2017-10-11T10:14:02.748Z,3.20
2017-10-11T10:16:38.114Z,3.80
2017-10-11T10:19:12.608Z,4.00
2017-10-11T10:21:47.032Z,4.65
2017-10-11T10:24:21.459Z,5.40
2017-10-11T10:26:55.888Z,4.47
2017-10-11T10:29:30.255Z,3.62
2017-10-11T10:32:04.881Z,4.28
2017-10-11T10:34:39.368Z,4.18
2017-10-11T10:37:13.868Z,4.68
2017-10-11T10:39:49.127Z,4.93
2017-10-11T10:42:23.603Z,4.22
2017-10-11T10:44:58.867Z,4.37
2017-10-11T10:47:33.387Z,3.30
2017-10-11T10:50:07.874Z,3.55
2017-10-11T10:52:42.396Z,3.42
2017-10-11T10:55:16.831Z,3.22
2017-10-11T10:57:51.308Z,3.37
2017-10-11T11:00:25.800Z,3.00
2017-10-11T11:03:00.122Z,2.80
2017-10-11T11:05:34.588Z,3.92
2017-10-11T11:08:08.997Z,3.83
2017-10-11T11:10:43.331Z,3.12
2017-10-11T11:13:17.794Z,2.47
2017-10-11T11:15:52.260Z,2.70
2017-10-11T11:18:26.721Z,1.85
2017-10-11T11:21:01.116Z,2.50
2017-10-11T11:23:35.659Z,2.20
2017-10-11T11:26:10.200Z,3.25
2017-10-11T11:28:44.711Z,2.87
2017-10-11T11:31:19.107Z,2.47
2017-10-11T11:33:53.441Z,1.98
2017-10-11T11:36:28.725Z,1.80
2017-10-11T11:39:03.419Z,2.35
2017-10-11T11:41:37.789Z,2.58
2017-10-11T11:44:12.160Z,2.53
2017-10-11T11:46:46.633Z,2.20
2017-10-11T11:49:21.191Z,1.70
2017-10-11T11:51:56.396Z,1.05
2017-10-11T11:54:31.725Z,1.50
2017-10-11T11:57:06.164Z,1.45
2017-10-11T11:59:40.611Z,1.00
2017-10-11T12:02:14.991Z,1.08
2017-10-11T12:04:49.400Z,1.30
2017-10-11T12:07:23.853Z,0.62
2017-10-11T12:09:58.390Z,1.42
2017-10-11T12:12:32.813Z,1.40
2017-10-11T12:15:07.131Z,1.12
2017-10-11T12:17:42.385Z,1.52
2017-10-11T12:20:17.629Z,1.30
2017-10-11T12:22:52.078Z,2.05
2017-10-11T12:25:27.376Z,1.70
2017-10-11T12:28:01.850Z,1.60
2017-10-11T12:30:36.364Z,2.92
2017-10-11T12:33:10.782Z,2.70
2017-10-11T12:35:45.140Z,3.05
2017-10-11T12:38:19.740Z,2.03
2017-10-11T12:40:54.183Z,3.47
2017-10-11T12:43:28.620Z,1.95
2017-10-11T12:46:03.081Z,2.08
2017-10-11T12:48:37.660Z,2.75
2017-10-11T12:51:11.956Z,2.62
2017-10-11T12:53:46.420Z,2.28
2017-10-11T12:56:21.684Z,3.97
2017-10-11T12:58:56.128Z,2.90
2017-10-11T13:01:30.653Z,3.42
2017-10-11T13:04:05.262Z,2.50
2017-10-11T13:06:39.640Z,3.28
2017-10-11T13:09:14.005Z,2.55
2017-10-11T13:11:49.295Z,3.28
2017-10-11T13:14:23.793Z,2.97
2017-10-11T13:16:58.334Z,4.18
2017-10-11T13:19:32.772Z,5.87
2017-10-11T13:22:07.195Z,4.35
2017-10-11T13:24:41.691Z,4.80
2017-10-11T13:27:16.262Z,6.95
2017-10-11T13:29:50.575Z,7.68
2017-10-11T13:32:25.018Z,6.70
2017-10-11T13:35:00.277Z,7.65
2017-10-11T13:37:34.581Z,8.65
2017-10-11T13:40:09.048Z,7.30
2017-10-11T13:42:43.698Z,9.10
2017-10-11T13:45:18.040Z,7.62
2017-10-11T13:47:52.551Z,7.35
2017-10-11T13:50:27.146Z,8.20
2017-10-11T13:53:01.689Z,7.28
2017-10-11T13:55:36.036Z,8.18
2017-10-11T13:58:10.410Z,6.95
2017-10-11T14:00:44.985Z,7.18
2017-10-11T14:03:19.797Z,6.97
2017-10-11T14:05:54.284Z,6.20
2017-10-11T14:08:28.762Z,6.87
2017-10-11T14:11:03.307Z,5.80
2017-10-11T14:13:37.767Z,5.25
2017-10-11T14:16:12.352Z,4.65
2017-10-11T14:18:46.922Z,6.20
2017-10-11T14:21:21.363Z,5.25
2017-10-11T14:23:55.644Z,5.87
2017-10-11T14:26:30.343Z,4.68
2017-10-11T14:29:04.932Z,4.97
2017-10-11T14:31:39.466Z,3.35
2017-10-11T14:34:14.008Z,4.22
2017-10-11T14:36:48.450Z,4.75
2017-10-11T14:39:22.915Z,5.12
2017-10-11T14:41:58.108Z,5.12
2017-10-11T14:44:32.615Z,5.68
2017-10-11T14:47:07.142Z,5.18
2017-10-11T14:49:42.292Z,4.93
2017-10-11T14:52:16.661Z,4.55
2017-10-11T14:54:51.201Z,4.25
2017-10-11T14:57:25.736Z,7.00
2017-10-11T15:00:00.340Z,6.12
2017-10-11T15:02:34.839Z,7.80
2017-10-11T15:05:09.247Z,6.95
2017-10-11T15:07:43.739Z,8.25
2017-10-11T15:10:18.989Z,10.15
2017-10-11T15:12:53.557Z,11.15
2017-10-11T15:15:28.102Z,11.35
2017-10-11T15:18:02.513Z,12.95
2017-10-11T15:20:37.809Z,11.32
2017-10-11T15:23:12.259Z,12.82
2017-10-11T15:25:47.442Z,8.82
2017-10-11T15:28:21.940Z,10.45
2017-10-11T15:30:56.284Z,14.95
2017-10-11T15:33:30.735Z,10.85
2017-10-11T15:36:05.188Z,11.30
2017-10-11T15:38:40.281Z,12.55
2017-10-11T15:41:14.648Z,13.88
2017-10-11T15:43:49.040Z,10.98
2017-10-11T15:46:23.538Z,15.15
2017-10-11T15:48:57.847Z,16.12
2017-10-11T15:51:32.287Z,10.68
2017-10-11T15:54:06.848Z,15.50
2017-10-11T15:56:41.213Z,12.80
2017-10-11T15:59:15.658Z,15.18
2017-10-11T16:01:50.062Z,13.18
2017-10-11T16:04:24.499Z,16.23
2017-10-11T16:06:59.733Z,18.60
2017-10-11T16:09:34.057Z,14.70
2017-10-11T16:12:08.459Z,16.65
2017-10-11T16:14:42.882Z,17.37
2017-10-11T16:17:17.298Z,17.87
2017-10-11T16:19:51.800Z,16.27
2017-10-11T16:22:26.149Z,19.20
2017-10-11T16:25:00.589Z,16.25
2017-10-11T16:27:35.062Z,17.50
2017-10-11T16:30:09.513Z,13.52
2017-10-11T16:32:44.154Z,16.83
2017-10-11T16:35:19.708Z,17.15
2017-10-11T16:37:54.048Z,14.80
2017-10-11T16:40:29.336Z,15.30
2017-10-11T16:43:03.842Z,16.10
2017-10-11T16:45:38.328Z,14.27
2017-10-11T16:48:12.799Z,17.55
2017-10-11T16:50:47.257Z,14.48
2017-10-11T16:53:21.812Z,17.80
2017-10-11T16:55:56.260Z,16.45
2017-10-11T16:58:30.688Z,12.98
2017-10-11T17:01:04.989Z,14.13
2017-10-11T17:03:39.457Z,14.65
2017-10-11T17:06:13.955Z,21.17
2017-10-11T17:08:48.513Z,12.60
2017-10-11T17:11:23.785Z,13.95
2017-10-11T17:13:58.118Z,11.12
2017-10-11T17:16:32.636Z,13.73
2017-10-11T17:19:06.971Z,11.57
2017-10-11T17:21:41.563Z,13.13
2017-10-11T17:24:15.942Z,11.52
2017-10-11T17:26:50.480Z,15.60
2017-10-11T17:29:24.845Z,13.52
2017-10-11T17:31:59.359Z,10.13
2017-10-11T17:34:33.936Z,15.93
2017-10-11T17:37:08.451Z,13.75
2017-10-11T17:39:43.749Z,15.32
2017-10-11T17:42:18.060Z,14.13
2017-10-11T17:44:52.589Z,12.70
2017-10-11T17:47:27.099Z,15.52
2017-10-11T17:50:01.483Z,17.00
2017-10-11T17:52:35.983Z,15.23
2017-10-11T17:55:10.485Z,14.98
2017-10-11T17:57:45.002Z,12.48
2017-10-11T18:00:20.422Z,14.77
2017-10-11T18:02:55.805Z,12.20
2017-10-11T18:05:30.355Z,15.40
2017-10-11T18:08:05.176Z,10.00
2017-10-11T18:10:39.885Z,14.75
2017-10-11T18:13:15.608Z,12.30
2017-10-11T18:15:50.324Z,15.82
2017-10-11T18:18:25.793Z,14.07
2017-10-11T18:21:00.495Z,15.07
2017-10-11T18:23:35.269Z,17.23
2017-10-11T18:26:10.013Z,15.32
2017-10-11T18:28:44.769Z,12.43
2017-10-11T18:31:19.579Z,13.07
2017-10-11T18:33:54.248Z,13.00
2017-10-11T18:36:29.007Z,11.68
2017-10-11T18:39:04.128Z,14.00
2017-10-11T18:41:38.927Z,13.65
2017-10-11T18:44:13.612Z,12.00
2017-10-11T18:46:48.607Z,11.43
2017-10-11T18:49:23.744Z,10.82
2017-10-11T18:51:58.407Z,11.82
2017-10-11T18:54:33.440Z,11.95
2017-10-11T18:57:08.248Z,11.80
2017-10-11T18:59:43.018Z,10.27
2017-10-11T19:02:17.749Z,10.55
2017-10-11T19:04:52.632Z,9.93
2017-10-11T19:07:28.207Z,11.10
2017-10-11T19:10:03.213Z,11.77
2017-10-11T19:12:38.713Z,11.27
2017-10-11T19:15:13.828Z,11.05
2017-10-11T19:17:48.705Z,13.00
2017-10-11T19:20:24.391Z,9.80
2017-10-11T19:22:59.145Z,12.63
2017-10-11T19:25:34.074Z,9.43
2017-10-11T19:28:09.359Z,10.55
2017-10-11T19:30:45.326Z,7.70
2017-10-11T19:33:20.376Z,8.38
2017-10-11T19:35:55.825Z,10.00
2017-10-11T19:38:31.875Z,11.57
2017-10-11T19:41:07.557Z,9.95
2017-10-11T19:43:42.420Z,11.20
2017-10-11T19:46:17.576Z,10.55
2017-10-11T19:48:54.737Z,8.27
2017-10-11T19:51:29.709Z,10.23
2017-10-11T19:54:08.464Z,10.13
2017-10-11T19:56:43.594Z,8.55
2017-10-11T19:59:18.353Z,8.02
2017-10-11T20:01:55.055Z,11.23
2017-10-11T20:04:29.919Z,7.70
2017-10-11T20:07:05.569Z,9.60
2017-10-11T20:09:40.432Z,6.60
2017-10-11T20:12:15.321Z,9.35
2017-10-11T20:14:50.757Z,9.60
2017-10-11T20:17:25.705Z,10.23
2017-10-11T20:20:00.373Z,7.82
2017-10-11T20:22:35.454Z,9.98
2017-10-11T20:25:10.065Z,9.07
2017-10-11T20:27:45.313Z,8.88
2017-10-11T20:30:19.857Z,9.05
2017-10-11T20:32:54.984Z,8.23
2017-10-11T20:35:29.505Z,9.25
2017-10-11T20:38:04.798Z,8.98
2017-10-11T20:40:39.973Z,9.05
2017-10-11T20:43:16.159Z,7.28
2017-10-11T20:45:50.771Z,7.65
2017-10-11T20:48:25.273Z,6.97
2017-10-11T20:51:00.490Z,7.85
2017-10-11T20:53:34.806Z,9.23
2017-10-11T20:56:09.092Z,8.07
2017-10-11T20:58:43.512Z,8.38
2017-10-11T21:01:18.048Z,7.87
2017-10-11T21:03:52.587Z,8.20
2017-10-11T21:06:26.957Z,7.75
2017-10-11T21:09:01.463Z,9.15
2017-10-11T21:11:36.362Z,6.72
2017-10-11T21:14:10.973Z,10.05
2017-10-11T21:16:45.372Z,7.68
2017-10-11T21:19:19.910Z,7.95
2017-10-11T21:21:54.452Z,7.97
2017-10-11T21:24:28.916Z,5.32
2017-10-11T21:27:04.001Z,7.62
2017-10-11T21:29:38.503Z,8.90
2017-10-11T21:32:12.954Z,7.45
2017-10-11T21:34:47.466Z,7.90
2017-10-11T21:37:21.798Z,7.55
2017-10-11T21:39:56.132Z,7.07
2017-10-11T21:42:30.469Z,10.68
2017-10-11T21:45:05.132Z,8.27
2017-10-11T21:47:39.565Z,7.15
2017-10-11T21:50:13.921Z,8.10
2017-10-11T21:52:48.372Z,8.45
2017-10-11T21:55:22.960Z,9.45
2017-10-11T21:57:57.450Z,8.25
2017-10-11T22:00:32.214Z,9.70
2017-10-11T22:03:06.705Z,6.62
2017-10-11T22:05:41.083Z,8.38
2017-10-11T22:08:15.551Z,9.13
2017-10-11T22:10:50.063Z,6.18
2017-10-11T22:13:24.575Z,9.38
2017-10-11T22:15:59.806Z,7.70
2017-10-11T22:18:34.298Z,10.32
2017-10-11T22:21:08.773Z,9.88
2017-10-11T22:23:44.031Z,11.12
2017-10-11T22:26:18.404Z,9.77
2017-10-11T22:28:52.959Z,5.82
2017-10-11T22:31:27.392Z,9.23
2017-10-11T22:34:01.911Z,9.25
2017-10-11T22:36:37.132Z,9.57
2017-10-11T22:39:11.536Z,8.60
2017-10-11T22:41:46.873Z,9.55
2017-10-11T22:44:21.220Z,9.90
2017-10-11T22:46:55.497Z,8.65
2017-10-11T22:49:29.823Z,8.50
2017-10-11T22:52:04.169Z,6.68
2017-10-11T22:54:39.972Z,8.93
2017-10-11T22:57:14.362Z,8.38
2017-10-11T22:59:48.859Z,9.88
2017-10-11T23:02:23.279Z,9.27
2017-10-11T23:04:57.592Z,9.85
2017-10-11T23:07:32.814Z,9.07
2017-10-11T23:10:07.356Z,8.52
2017-10-11T23:12:41.787Z,8.80
2017-10-11T23:15:16.226Z,4.87
2017-10-11T23:17:50.563Z,8.88
2017-10-11T23:20:25.051Z,5.22
2017-10-11T23:22:59.607Z,7.65
2017-10-11T23:25:34.148Z,5.43
2017-10-11T23:28:08.583Z,7.70
2017-10-11T23:30:42.974Z,8.30
2017-10-11T23:33:18.164Z,7.80
2017-10-11T23:35:52.589Z,6.32
2017-10-11T23:38:26.923Z,7.80
2017-10-11T23:41:01.399Z,6.80
2017-10-11T23:43:35.921Z,5.05
2017-10-11T23:46:10.414Z,7.68
2017-10-11T23:48:44.764Z,7.50
2017-10-11T23:51:19.217Z,6.72
2017-10-11T23:53:53.930Z,7.65
2017-10-11T23:56:28.403Z,7.70
2017-10-11T23:59:03.591Z,8.00
